sensor_id;sensor_type;location;lat;lon;timestamp;P1;durP1;ratioP1;P2;durP2;ratioP2
5460;SDS011;2753;49.196;8.286;2024-03-06T00:00:56;7.67;;;5.30;;
5460;SDS011;2753;49.196;8.286;2024-03-06T00:03:22;5.90;;;5.00;;
5460;SDS011;2753;49.196;8.286;2024-03-06T00:05:48;10.73;;;6.17;;
5460;SDS011;2753;49.196;8.286;2024-03-06T00:08:13;9.97;;;5.50;;
5460;SDS011;2753;49.196;8.286;2024-03-06T00:10:40;19.33;;;6.07;;
5460;SDS011;2753;49.196;8.286;2024-03-06T00:13:06;15.37;;;7.27;;
5460;SDS011;2753;49.196;8.286;2024-03-06T00:15:32;14.97;;;8.23;;
5460;SDS011;2753;49.196;8.286;2024-03-06T00:17:58;10.23;;;6.57;;
5460;SDS011;2753;49.196;8.286;2024-03-06T00:20:24;9.87;;;5.33;;
5460;SDS011;2753;49.196;8.286;2024-03-06T00:22:50;7.50;;;4.80;;
5460;SDS011;2753;49.196;8.286;2024-03-06T00:25:16;7.90;;;4.50;;
5460;SDS011;2753;49.196;8.286;2024-03-06T00:27:41;11.10;;;4.80;;
5460;SDS011;2753;49.196;8.286;2024-03-06T00:30:07;8.23;;;4.60;;
5460;SDS011;2753;49.196;8.286;2024-03-06T00:32:33;14.43;;;5.67;;
5460;SDS011;2753;49.196;8.286;2024-03-06T00:34:59;5.33;;;4.30;;
5460;SDS011;2753;49.196;8.286;2024-03-06T00:37:24;5.40;;;4.30;;
5460;SDS011;2753;49.196;8.286;2024-03-06T00:39:50;26.77;;;12.20;;
5460;SDS011;2753;49.196;8.286;2024-03-06T00:42:15;14.83;;;8.90;;
5460;SDS011;2753;49.196;8.286;2024-03-06T00:44:44;15.50;;;8.73;;
5460;SDS011;2753;49.196;8.286;2024-03-06T00:47:09;5.40;;;4.90;;
5460;SDS011;2753;49.196;8.286;2024-03-06T00:49:35;10.67;;;5.03;;
5460;SDS011;2753;49.196;8.286;2024-03-06T00:52:01;9.67;;;5.23;;
5460;SDS011;2753;49.196;8.286;2024-03-06T00:54:26;10.03;;;5.93;;
5460;SDS011;2753;49.196;8.286;2024-03-06T00:56:52;5.23;;;3.93;;
5460;SDS011;2753;49.196;8.286;2024-03-06T00:59:18;8.10;;;5.10;;
5460;SDS011;2753;49.196;8.286;2024-03-06T01:01:43;8.80;;;5.20;;
5460;SDS011;2753;49.196;8.286;2024-03-06T01:04:09;9.20;;;4.60;;
5460;SDS011;2753;49.196;8.286;2024-03-06T01:06:34;7.20;;;5.37;;
5460;SDS011;2753;49.196;8.286;2024-03-06T01:09:00;11.43;;;5.10;;
5460;SDS011;2753;49.196;8.286;2024-03-06T01:11:26;6.63;;;4.17;;
5460;SDS011;2753;49.196;8.286;2024-03-06T01:13:52;7.13;;;5.27;;
5460;SDS011;2753;49.196;8.286;2024-03-06T01:16:18;7.80;;;5.20;;
5460;SDS011;2753;49.196;8.286;2024-03-06T01:18:44;8.70;;;5.87;;
5460;SDS011;2753;49.196;8.286;2024-03-06T01:21:09;12.00;;;6.97;;
5460;SDS011;2753;49.196;8.286;2024-03-06T01:23:35;11.93;;;6.93;;
5460;SDS011;2753;49.196;8.286;2024-03-06T01:26:01;12.17;;;6.77;;
5460;SDS011;2753;49.196;8.286;2024-03-06T01:28:26;10.70;;;6.30;;
5460;SDS011;2753;49.196;8.286;2024-03-06T01:30:52;8.97;;;4.83;;
5460;SDS011;2753;49.196;8.286;2024-03-06T01:33:18;7.40;;;4.77;;
5460;SDS011;2753;49.196;8.286;2024-03-06T01:35:43;7.67;;;5.10;;
5460;SDS011;2753;49.196;8.286;2024-03-06T01:38:09;10.10;;;4.60;;
5460;SDS011;2753;49.196;8.286;2024-03-06T01:40:35;7.70;;;4.60;;
5460;SDS011;2753;49.196;8.286;2024-03-06T01:43:01;15.23;;;5.20;;
5460;SDS011;2753;49.196;8.286;2024-03-06T01:45:27;4.07;;;3.50;;
5460;SDS011;2753;49.196;8.286;2024-03-06T01:47:52;6.80;;;4.53;;
5460;SDS011;2753;49.196;8.286;2024-03-06T01:50:18;5.90;;;4.23;;
5460;SDS011;2753;49.196;8.286;2024-03-06T01:52:44;6.70;;;4.37;;
5460;SDS011;2753;49.196;8.286;2024-03-06T01:55:11;5.00;;;4.03;;
5460;SDS011;2753;49.196;8.286;2024-03-06T01:57:38;4.43;;;3.83;;
5460;SDS011;2753;49.196;8.286;2024-03-06T02:00:06;7.20;;;3.70;;
5460;SDS011;2753;49.196;8.286;2024-03-06T02:02:39;7.07;;;5.17;;
5460;SDS011;2753;49.196;8.286;2024-03-06T02:05:08;9.07;;;4.40;;
5460;SDS011;2753;49.196;8.286;2024-03-06T02:07:34;4.07;;;3.67;;
5460;SDS011;2753;49.196;8.286;2024-03-06T02:10:04;7.50;;;4.00;;
5460;SDS011;2753;49.196;8.286;2024-03-06T02:12:31;6.47;;;4.27;;
5460;SDS011;2753;49.196;8.286;2024-03-06T02:14:58;7.60;;;4.40;;
5460;SDS011;2753;49.196;8.286;2024-03-06T02:17:23;4.90;;;3.90;;
5460;SDS011;2753;49.196;8.286;2024-03-06T02:19:50;6.13;;;4.37;;
5460;SDS011;2753;49.196;8.286;2024-03-06T02:22:16;8.63;;;4.10;;
5460;SDS011;2753;49.196;8.286;2024-03-06T02:24:45;6.67;;;4.30;;
5460;SDS011;2753;49.196;8.286;2024-03-06T02:27:12;5.20;;;4.37;;
5460;SDS011;2753;49.196;8.286;2024-03-06T02:29:38;8.00;;;5.53;;
5460;SDS011;2753;49.196;8.286;2024-03-06T02:32:04;6.30;;;4.43;;
5460;SDS011;2753;49.196;8.286;2024-03-06T02:34:29;5.90;;;4.30;;
5460;SDS011;2753;49.196;8.286;2024-03-06T02:36:55;5.20;;;4.60;;
5460;SDS011;2753;49.196;8.286;2024-03-06T02:39:21;5.67;;;3.80;;
5460;SDS011;2753;49.196;8.286;2024-03-06T02:41:47;5.73;;;4.37;;
5460;SDS011;2753;49.196;8.286;2024-03-06T02:44:13;7.60;;;4.30;;
5460;SDS011;2753;49.196;8.286;2024-03-06T02:46:40;8.40;;;4.33;;
5460;SDS011;2753;49.196;8.286;2024-03-06T02:49:06;5.87;;;4.43;;
5460;SDS011;2753;49.196;8.286;2024-03-06T02:51:31;6.77;;;3.97;;
5460;SDS011;2753;49.196;8.286;2024-03-06T02:53:57;10.40;;;4.67;;
5460;SDS011;2753;49.196;8.286;2024-03-06T02:56:23;4.00;;;3.53;;
5460;SDS011;2753;49.196;8.286;2024-03-06T02:58:48;7.23;;;4.77;;
5460;SDS011;2753;49.196;8.286;2024-03-06T03:01:14;8.90;;;4.20;;
5460;SDS011;2753;49.196;8.286;2024-03-06T03:03:41;4.23;;;3.83;;
5460;SDS011;2753;49.196;8.286;2024-03-06T03:06:09;3.73;;;3.33;;
5460;SDS011;2753;49.196;8.286;2024-03-06T03:08:36;8.27;;;4.20;;
5460;SDS011;2753;49.196;8.286;2024-03-06T03:11:02;5.87;;;4.10;;
5460;SDS011;2753;49.196;8.286;2024-03-06T03:13:28;8.70;;;4.10;;
5460;SDS011;2753;49.196;8.286;2024-03-06T03:15:55;7.70;;;4.10;;
5460;SDS011;2753;49.196;8.286;2024-03-06T03:18:24;7.20;;;3.70;;
5460;SDS011;2753;49.196;8.286;2024-03-06T03:20:49;4.20;;;3.80;;
5460;SDS011;2753;49.196;8.286;2024-03-06T03:23:15;5.43;;;4.00;;
5460;SDS011;2753;49.196;8.286;2024-03-06T03:25:50;5.97;;;4.23;;
5460;SDS011;2753;49.196;8.286;2024-03-06T03:28:15;6.57;;;4.33;;
5460;SDS011;2753;49.196;8.286;2024-03-06T03:30:44;6.40;;;4.00;;
5460;SDS011;2753;49.196;8.286;2024-03-06T03:33:10;8.97;;;4.40;;
5460;SDS011;2753;49.196;8.286;2024-03-06T03:35:36;4.20;;;3.73;;
5460;SDS011;2753;49.196;8.286;2024-03-06T03:38:01;5.60;;;4.00;;
5460;SDS011;2753;49.196;8.286;2024-03-06T03:40:28;5.03;;;3.83;;
5460;SDS011;2753;49.196;8.286;2024-03-06T03:42:54;7.13;;;4.00;;
5460;SDS011;2753;49.196;8.286;2024-03-06T03:45:19;7.97;;;4.20;;
5460;SDS011;2753;49.196;8.286;2024-03-06T03:47:45;5.90;;;4.50;;
5460;SDS011;2753;49.196;8.286;2024-03-06T03:50:11;3.83;;;3.37;;
5460;SDS011;2753;49.196;8.286;2024-03-06T03:52:37;11.27;;;4.57;;
5460;SDS011;2753;49.196;8.286;2024-03-06T03:55:06;5.77;;;3.73;;
5460;SDS011;2753;49.196;8.286;2024-03-06T03:57:32;6.30;;;3.90;;
5460;SDS011;2753;49.196;8.286;2024-03-06T03:59:58;5.70;;;4.40;;
5460;SDS011;2753;49.196;8.286;2024-03-06T04:02:24;12.13;;;4.90;;
5460;SDS011;2753;49.196;8.286;2024-03-06T04:04:50;4.90;;;3.87;;
5460;SDS011;2753;49.196;8.286;2024-03-06T04:07:15;5.47;;;4.30;;
5460;SDS011;2753;49.196;8.286;2024-03-06T04:09:43;5.67;;;3.70;;
5460;SDS011;2753;49.196;8.286;2024-03-06T04:12:09;6.40;;;4.03;;
5460;SDS011;2753;49.196;8.286;2024-03-06T04:14:35;8.53;;;4.37;;
5460;SDS011;2753;49.196;8.286;2024-03-06T04:17:01;5.53;;;3.70;;
5460;SDS011;2753;49.196;8.286;2024-03-06T04:19:28;7.07;;;4.50;;
5460;SDS011;2753;49.196;8.286;2024-03-06T04:21:54;5.50;;;4.47;;
5460;SDS011;2753;49.196;8.286;2024-03-06T04:24:20;4.80;;;4.20;;
5460;SDS011;2753;49.196;8.286;2024-03-06T04:26:45;5.67;;;3.87;;
5460;SDS011;2753;49.196;8.286;2024-03-06T04:29:11;5.40;;;4.17;;
5460;SDS011;2753;49.196;8.286;2024-03-06T04:31:37;4.27;;;3.87;;
5460;SDS011;2753;49.196;8.286;2024-03-06T04:34:02;5.13;;;4.37;;
5460;SDS011;2753;49.196;8.286;2024-03-06T04:36:28;6.37;;;4.27;;
5460;SDS011;2753;49.196;8.286;2024-03-06T04:38:54;10.67;;;3.73;;
5460;SDS011;2753;49.196;8.286;2024-03-06T04:41:19;9.10;;;4.63;;
5460;SDS011;2753;49.196;8.286;2024-03-06T04:43:45;5.87;;;4.07;;
5460;SDS011;2753;49.196;8.286;2024-03-06T04:46:14;6.33;;;4.10;;
5460;SDS011;2753;49.196;8.286;2024-03-06T04:48:40;7.07;;;4.00;;
5460;SDS011;2753;49.196;8.286;2024-03-06T04:51:05;4.10;;;3.80;;
5460;SDS011;2753;49.196;8.286;2024-03-06T04:53:31;5.57;;;4.40;;
5460;SDS011;2753;49.196;8.286;2024-03-06T04:55:57;6.87;;;4.33;;
5460;SDS011;2753;49.196;8.286;2024-03-06T04:58:22;8.33;;;5.17;;
5460;SDS011;2753;49.196;8.286;2024-03-06T05:00:48;6.37;;;4.80;;
5460;SDS011;2753;49.196;8.286;2024-03-06T05:03:14;8.93;;;5.67;;
5460;SDS011;2753;49.196;8.286;2024-03-06T05:05:40;8.00;;;5.57;;
5460;SDS011;2753;49.196;8.286;2024-03-06T05:08:05;8.90;;;5.00;;
5460;SDS011;2753;49.196;8.286;2024-03-06T05:10:32;9.90;;;4.33;;
5460;SDS011;2753;49.196;8.286;2024-03-06T05:12:57;6.00;;;4.57;;
5460;SDS011;2753;49.196;8.286;2024-03-06T05:15:23;8.07;;;4.17;;
5460;SDS011;2753;49.196;8.286;2024-03-06T05:17:49;13.40;;;4.27;;
5460;SDS011;2753;49.196;8.286;2024-03-06T05:20:17;6.90;;;4.93;;
5460;SDS011;2753;49.196;8.286;2024-03-06T05:22:43;15.97;;;8.70;;
5460;SDS011;2753;49.196;8.286;2024-03-06T05:25:09;9.43;;;4.13;;
5460;SDS011;2753;49.196;8.286;2024-03-06T05:27:35;7.97;;;4.23;;
5460;SDS011;2753;49.196;8.286;2024-03-06T05:30:01;7.43;;;4.43;;
5460;SDS011;2753;49.196;8.286;2024-03-06T05:32:29;10.77;;;4.43;;
5460;SDS011;2753;49.196;8.286;2024-03-06T05:34:55;12.43;;;4.00;;
5460;SDS011;2753;49.196;8.286;2024-03-06T05:37:20;5.43;;;4.50;;
5460;SDS011;2753;49.196;8.286;2024-03-06T05:39:46;8.80;;;5.00;;
5460;SDS011;2753;49.196;8.286;2024-03-06T05:42:12;9.13;;;4.80;;
5460;SDS011;2753;49.196;8.286;2024-03-06T05:44:38;20.37;;;6.10;;
5460;SDS011;2753;49.196;8.286;2024-03-06T05:47:03;8.80;;;5.17;;
5460;SDS011;2753;49.196;8.286;2024-03-06T05:49:29;64.37;;;25.23;;
5460;SDS011;2753;49.196;8.286;2024-03-06T05:51:55;80.97;;;33.00;;
5460;SDS011;2753;49.196;8.286;2024-03-06T05:54:21;37.97;;;14.37;;
5460;SDS011;2753;49.196;8.286;2024-03-06T05:56:51;27.47;;;8.07;;
5460;SDS011;2753;49.196;8.286;2024-03-06T05:59:17;20.90;;;6.47;;
5460;SDS011;2753;49.196;8.286;2024-03-06T06:01:43;16.27;;;10.70;;
5460;SDS011;2753;49.196;8.286;2024-03-06T06:04:12;19.43;;;8.87;;
5460;SDS011;2753;49.196;8.286;2024-03-06T06:06:38;14.07;;;9.17;;
5460;SDS011;2753;49.196;8.286;2024-03-06T06:09:04;14.80;;;7.20;;
5460;SDS011;2753;49.196;8.286;2024-03-06T06:11:30;7.90;;;6.83;;
5460;SDS011;2753;49.196;8.286;2024-03-06T06:13:57;12.57;;;6.90;;
5460;SDS011;2753;49.196;8.286;2024-03-06T06:16:22;10.60;;;5.40;;
5460;SDS011;2753;49.196;8.286;2024-03-06T06:18:48;4.70;;;4.13;;
5460;SDS011;2753;49.196;8.286;2024-03-06T06:21:14;8.00;;;4.40;;
5460;SDS011;2753;49.196;8.286;2024-03-06T06:23:41;8.53;;;5.23;;
5460;SDS011;2753;49.196;8.286;2024-03-06T06:26:08;7.70;;;4.90;;
5460;SDS011;2753;49.196;8.286;2024-03-06T06:28:35;7.80;;;4.83;;
5460;SDS011;2753;49.196;8.286;2024-03-06T06:31:02;9.13;;;4.40;;
5460;SDS011;2753;49.196;8.286;2024-03-06T06:33:30;12.10;;;6.30;;
5460;SDS011;2753;49.196;8.286;2024-03-06T06:35:56;10.07;;;5.47;;
5460;SDS011;2753;49.196;8.286;2024-03-06T06:38:21;10.93;;;5.50;;
5460;SDS011;2753;49.196;8.286;2024-03-06T06:40:47;16.40;;;6.10;;
5460;SDS011;2753;49.196;8.286;2024-03-06T06:43:13;17.93;;;6.97;;
5460;SDS011;2753;49.196;8.286;2024-03-06T06:45:40;9.37;;;5.83;;
5460;SDS011;2753;49.196;8.286;2024-03-06T06:48:06;14.30;;;7.57;;
5460;SDS011;2753;49.196;8.286;2024-03-06T06:50:34;18.90;;;6.97;;
5460;SDS011;2753;49.196;8.286;2024-03-06T06:52:59;15.53;;;8.30;;
5460;SDS011;2753;49.196;8.286;2024-03-06T06:55:25;19.43;;;7.60;;
5460;SDS011;2753;49.196;8.286;2024-03-06T06:57:51;12.73;;;6.97;;
5460;SDS011;2753;49.196;8.286;2024-03-06T07:00:17;11.53;;;6.33;;
5460;SDS011;2753;49.196;8.286;2024-03-06T07:02:43;20.70;;;6.27;;
5460;SDS011;2753;49.196;8.286;2024-03-06T07:05:10;13.57;;;5.70;;
5460;SDS011;2753;49.196;8.286;2024-03-06T07:07:36;11.40;;;5.70;;
5460;SDS011;2753;49.196;8.286;2024-03-06T07:10:04;13.47;;;5.87;;
5460;SDS011;2753;49.196;8.286;2024-03-06T07:12:30;9.83;;;5.50;;
5460;SDS011;2753;49.196;8.286;2024-03-06T07:14:59;14.17;;;6.53;;
5460;SDS011;2753;49.196;8.286;2024-03-06T07:17:25;11.40;;;7.50;;
5460;SDS011;2753;49.196;8.286;2024-03-06T07:19:50;11.63;;;5.97;;
5460;SDS011;2753;49.196;8.286;2024-03-06T07:22:17;13.53;;;6.27;;
5460;SDS011;2753;49.196;8.286;2024-03-06T07:24:44;11.57;;;6.53;;
5460;SDS011;2753;49.196;8.286;2024-03-06T07:27:10;18.50;;;7.20;;
5460;SDS011;2753;49.196;8.286;2024-03-06T07:29:36;10.43;;;6.70;;
5460;SDS011;2753;49.196;8.286;2024-03-06T07:32:02;9.30;;;6.03;;
5460;SDS011;2753;49.196;8.286;2024-03-06T07:34:30;12.13;;;6.80;;
5460;SDS011;2753;49.196;8.286;2024-03-06T07:36:56;10.20;;;7.23;;
5460;SDS011;2753;49.196;8.286;2024-03-06T07:39:23;11.77;;;7.43;;
5460;SDS011;2753;49.196;8.286;2024-03-06T07:41:49;8.53;;;6.00;;
5460;SDS011;2753;49.196;8.286;2024-03-06T07:44:14;8.33;;;6.20;;
5460;SDS011;2753;49.196;8.286;2024-03-06T07:46:40;6.83;;;5.70;;
5460;SDS011;2753;49.196;8.286;2024-03-06T07:49:06;8.90;;;5.70;;
5460;SDS011;2753;49.196;8.286;2024-03-06T07:51:32;11.13;;;7.30;;
5460;SDS011;2753;49.196;8.286;2024-03-06T07:53:58;11.23;;;5.53;;
5460;SDS011;2753;49.196;8.286;2024-03-06T07:56:25;10.10;;;5.40;;
5460;SDS011;2753;49.196;8.286;2024-03-06T07:58:51;6.20;;;5.10;;
5460;SDS011;2753;49.196;8.286;2024-03-06T08:01:17;11.03;;;6.67;;
5460;SDS011;2753;49.196;8.286;2024-03-06T08:03:43;12.80;;;6.60;;
5460;SDS011;2753;49.196;8.286;2024-03-06T08:06:09;9.20;;;6.63;;
5460;SDS011;2753;49.196;8.286;2024-03-06T08:08:40;11.90;;;6.20;;
5460;SDS011;2753;49.196;8.286;2024-03-06T08:11:06;12.40;;;6.50;;
5460;SDS011;2753;49.196;8.286;2024-03-06T08:13:31;11.63;;;5.37;;
5460;SDS011;2753;49.196;8.286;2024-03-06T08:15:57;11.93;;;6.57;;
5460;SDS011;2753;49.196;8.286;2024-03-06T08:18:23;8.40;;;5.60;;
5460;SDS011;2753;49.196;8.286;2024-03-06T08:20:48;7.93;;;5.43;;
5460;SDS011;2753;49.196;8.286;2024-03-06T08:23:14;10.97;;;5.60;;
5460;SDS011;2753;49.196;8.286;2024-03-06T08:25:40;8.27;;;5.70;;
5460;SDS011;2753;49.196;8.286;2024-03-06T08:28:06;12.73;;;5.07;;
5460;SDS011;2753;49.196;8.286;2024-03-06T08:30:31;10.40;;;6.23;;
5460;SDS011;2753;49.196;8.286;2024-03-06T08:32:57;9.37;;;5.30;;
5460;SDS011;2753;49.196;8.286;2024-03-06T08:35:23;12.90;;;5.37;;
5460;SDS011;2753;49.196;8.286;2024-03-06T08:37:50;9.50;;;6.17;;
5460;SDS011;2753;49.196;8.286;2024-03-06T08:40:16;8.10;;;5.73;;
5460;SDS011;2753;49.196;8.286;2024-03-06T08:42:50;19.53;;;5.70;;
5460;SDS011;2753;49.196;8.286;2024-03-06T08:45:16;12.37;;;5.20;;
5460;SDS011;2753;49.196;8.286;2024-03-06T08:47:45;13.23;;;5.43;;
5460;SDS011;2753;49.196;8.286;2024-03-06T08:50:12;10.17;;;5.73;;
5460;SDS011;2753;49.196;8.286;2024-03-06T08:52:38;12.33;;;5.80;;
5460;SDS011;2753;49.196;8.286;2024-03-06T08:55:04;17.90;;;5.23;;
5460;SDS011;2753;49.196;8.286;2024-03-06T08:57:32;5.87;;;5.00;;
5460;SDS011;2753;49.196;8.286;2024-03-06T08:59:58;7.90;;;5.50;;
5460;SDS011;2753;49.196;8.286;2024-03-06T09:02:24;9.77;;;5.80;;
5460;SDS011;2753;49.196;8.286;2024-03-06T09:04:51;7.43;;;5.60;;
5460;SDS011;2753;49.196;8.286;2024-03-06T09:07:17;14.93;;;6.40;;
5460;SDS011;2753;49.196;8.286;2024-03-06T09:09:43;12.07;;;5.73;;
5460;SDS011;2753;49.196;8.286;2024-03-06T09:12:10;9.57;;;6.40;;
5460;SDS011;2753;49.196;8.286;2024-03-06T09:14:36;12.60;;;5.40;;
5460;SDS011;2753;49.196;8.286;2024-03-06T09:17:03;15.20;;;7.20;;
5460;SDS011;2753;49.196;8.286;2024-03-06T09:19:29;11.70;;;6.80;;
5460;SDS011;2753;49.196;8.286;2024-03-06T09:21:56;9.37;;;5.37;;
5460;SDS011;2753;49.196;8.286;2024-03-06T09:24:25;6.70;;;5.17;;
5460;SDS011;2753;49.196;8.286;2024-03-06T09:26:51;9.33;;;5.37;;
5460;SDS011;2753;49.196;8.286;2024-03-06T09:29:17;10.93;;;6.13;;
5460;SDS011;2753;49.196;8.286;2024-03-06T09:31:43;8.90;;;5.83;;
5460;SDS011;2753;49.196;8.286;2024-03-06T09:34:09;14.07;;;6.87;;
5460;SDS011;2753;49.196;8.286;2024-03-06T09:36:37;7.30;;;5.17;;
5460;SDS011;2753;49.196;8.286;2024-03-06T09:39:04;6.07;;;4.70;;
5460;SDS011;2753;49.196;8.286;2024-03-06T09:41:30;10.63;;;5.13;;
5460;SDS011;2753;49.196;8.286;2024-03-06T09:43:56;6.97;;;5.10;;
5460;SDS011;2753;49.196;8.286;2024-03-06T09:46:22;7.03;;;5.23;;
5460;SDS011;2753;49.196;8.286;2024-03-06T09:48:48;9.10;;;6.60;;
5460;SDS011;2753;49.196;8.286;2024-03-06T09:51:16;13.03;;;6.60;;
5460;SDS011;2753;49.196;8.286;2024-03-06T09:53:42;10.60;;;6.67;;
5460;SDS011;2753;49.196;8.286;2024-03-06T09:56:08;15.23;;;6.33;;
5460;SDS011;2753;49.196;8.286;2024-03-06T09:58:38;14.80;;;6.63;;
5460;SDS011;2753;49.196;8.286;2024-03-06T10:01:04;8.73;;;6.83;;
5460;SDS011;2753;49.196;8.286;2024-03-06T10:03:32;11.60;;;6.43;;
5460;SDS011;2753;49.196;8.286;2024-03-06T10:05:59;7.90;;;5.80;;
5460;SDS011;2753;49.196;8.286;2024-03-06T10:08:28;10.63;;;6.53;;
5460;SDS011;2753;49.196;8.286;2024-03-06T10:10:53;10.70;;;5.83;;
5460;SDS011;2753;49.196;8.286;2024-03-06T10:13:23;7.70;;;5.20;;
5460;SDS011;2753;49.196;8.286;2024-03-06T10:16:00;10.77;;;6.30;;
5460;SDS011;2753;49.196;8.286;2024-03-06T10:18:27;9.30;;;5.47;;
5460;SDS011;2753;49.196;8.286;2024-03-06T10:20:54;11.00;;;5.00;;
5460;SDS011;2753;49.196;8.286;2024-03-06T10:23:20;8.67;;;4.80;;
5460;SDS011;2753;49.196;8.286;2024-03-06T10:25:47;9.43;;;5.07;;
5460;SDS011;2753;49.196;8.286;2024-03-06T10:28:17;13.40;;;4.70;;
5460;SDS011;2753;49.196;8.286;2024-03-06T10:30:47;9.33;;;4.77;;
5460;SDS011;2753;49.196;8.286;2024-03-06T10:33:14;12.63;;;6.17;;
5460;SDS011;2753;49.196;8.286;2024-03-06T10:35:42;17.13;;;5.70;;
5460;SDS011;2753;49.196;8.286;2024-03-06T10:38:09;12.40;;;6.10;;
5460;SDS011;2753;49.196;8.286;2024-03-06T10:40:38;7.27;;;4.40;;
5460;SDS011;2753;49.196;8.286;2024-03-06T10:43:06;7.20;;;4.00;;
5460;SDS011;2753;49.196;8.286;2024-03-06T10:48:05;7.73;;;4.77;;
5460;SDS011;2753;49.196;8.286;2024-03-06T10:50:34;11.50;;;5.20;;
5460;SDS011;2753;49.196;8.286;2024-03-06T10:53:01;16.90;;;10.73;;
5460;SDS011;2753;49.196;8.286;2024-03-06T10:55:29;11.10;;;7.07;;
5460;SDS011;2753;49.196;8.286;2024-03-06T10:57:59;8.10;;;5.00;;
5460;SDS011;2753;49.196;8.286;2024-03-06T11:00:25;5.13;;;3.93;;
5460;SDS011;2753;49.196;8.286;2024-03-06T11:02:53;3.63;;;2.73;;
5460;SDS011;2753;49.196;8.286;2024-03-06T11:05:20;6.10;;;4.40;;
5460;SDS011;2753;49.196;8.286;2024-03-06T11:07:46;5.03;;;4.30;;
5460;SDS011;2753;49.196;8.286;2024-03-06T11:10:12;9.47;;;5.40;;
5460;SDS011;2753;49.196;8.286;2024-03-06T11:12:41;18.13;;;4.23;;
5460;SDS011;2753;49.196;8.286;2024-03-06T11:15:13;4.43;;;3.90;;
5460;SDS011;2753;49.196;8.286;2024-03-06T11:17:40;4.50;;;3.40;;
5460;SDS011;2753;49.196;8.286;2024-03-06T11:20:39;7.57;;;3.10;;
5460;SDS011;2753;49.196;8.286;2024-03-06T11:28:19;14.03;;;3.53;;
5460;SDS011;2753;49.196;8.286;2024-03-06T11:30:46;8.30;;;3.80;;
5460;SDS011;2753;49.196;8.286;2024-03-06T11:33:14;8.73;;;3.80;;
5460;SDS011;2753;49.196;8.286;2024-03-06T11:38:57;3.93;;;3.07;;
5460;SDS011;2753;49.196;8.286;2024-03-06T11:41:46;6.33;;;3.40;;
5460;SDS011;2753;49.196;8.286;2024-03-06T11:44:17;4.10;;;3.10;;
5460;SDS011;2753;49.196;8.286;2024-03-06T11:46:48;5.30;;;3.33;;
5460;SDS011;2753;49.196;8.286;2024-03-06T11:49:18;4.40;;;3.10;;
5460;SDS011;2753;49.196;8.286;2024-03-06T11:51:49;7.13;;;3.33;;
5460;SDS011;2753;49.196;8.286;2024-03-06T11:54:18;3.20;;;3.00;;
5460;SDS011;2753;49.196;8.286;2024-03-06T11:56:48;3.20;;;2.90;;
5460;SDS011;2753;49.196;8.286;2024-03-06T11:59:16;3.63;;;3.20;;
5460;SDS011;2753;49.196;8.286;2024-03-06T12:01:54;3.40;;;3.10;;
5460;SDS011;2753;49.196;8.286;2024-03-06T12:04:21;3.40;;;3.10;;
5460;SDS011;2753;49.196;8.286;2024-03-06T12:06:48;4.43;;;2.60;;
5460;SDS011;2753;49.196;8.286;2024-03-06T12:09:14;4.73;;;2.27;;
5460;SDS011;2753;49.196;8.286;2024-03-06T12:11:40;2.83;;;2.63;;
5460;SDS011;2753;49.196;8.286;2024-03-06T12:14:12;3.30;;;2.47;;
5460;SDS011;2753;49.196;8.286;2024-03-06T12:16:39;3.00;;;2.80;;
5460;SDS011;2753;49.196;8.286;2024-03-06T12:19:08;4.50;;;2.90;;
5460;SDS011;2753;49.196;8.286;2024-03-06T12:21:34;4.67;;;3.60;;
5460;SDS011;2753;49.196;8.286;2024-03-06T12:26:33;4.23;;;3.50;;
5460;SDS011;2753;49.196;8.286;2024-03-06T12:29:08;6.33;;;3.30;;
5460;SDS011;2753;49.196;8.286;2024-03-06T12:31:38;6.77;;;3.70;;
5460;SDS011;2753;49.196;8.286;2024-03-06T12:34:07;3.23;;;2.60;;
5460;SDS011;2753;49.196;8.286;2024-03-06T12:36:34;3.20;;;3.00;;
5460;SDS011;2753;49.196;8.286;2024-03-06T12:39:03;3.37;;;2.90;;
5460;SDS011;2753;49.196;8.286;2024-03-06T12:41:37;3.60;;;3.40;;
5460;SDS011;2753;49.196;8.286;2024-03-06T12:44:09;3.90;;;3.07;;
5460;SDS011;2753;49.196;8.286;2024-03-06T12:46:35;7.80;;;4.50;;
5460;SDS011;2753;49.196;8.286;2024-03-06T12:49:01;5.63;;;3.87;;
5460;SDS011;2753;49.196;8.286;2024-03-06T12:51:26;10.33;;;4.30;;
5460;SDS011;2753;49.196;8.286;2024-03-06T12:53:52;5.47;;;3.77;;
5460;SDS011;2753;49.196;8.286;2024-03-06T12:56:18;11.10;;;4.37;;
5460;SDS011;2753;49.196;8.286;2024-03-06T12:58:44;5.60;;;4.30;;
5460;SDS011;2753;49.196;8.286;2024-03-06T13:01:10;5.30;;;3.67;;
5460;SDS011;2753;49.196;8.286;2024-03-06T13:03:36;6.93;;;4.30;;
5460;SDS011;2753;49.196;8.286;2024-03-06T13:06:03;11.77;;;5.67;;
5460;SDS011;2753;49.196;8.286;2024-03-06T13:08:30;7.03;;;4.70;;
5460;SDS011;2753;49.196;8.286;2024-03-06T13:10:56;9.20;;;4.53;;
5460;SDS011;2753;49.196;8.286;2024-03-06T13:13:22;13.30;;;5.93;;
5460;SDS011;2753;49.196;8.286;2024-03-06T13:15:53;8.83;;;6.80;;
5460;SDS011;2753;49.196;8.286;2024-03-06T13:18:19;8.43;;;5.77;;
5460;SDS011;2753;49.196;8.286;2024-03-06T13:20:45;10.30;;;6.90;;
5460;SDS011;2753;49.196;8.286;2024-03-06T13:23:11;15.60;;;7.40;;
5460;SDS011;2753;49.196;8.286;2024-03-06T13:25:37;13.73;;;7.53;;
5460;SDS011;2753;49.196;8.286;2024-03-06T13:28:03;15.37;;;9.20;;
5460;SDS011;2753;49.196;8.286;2024-03-06T13:30:30;18.53;;;8.60;;
5460;SDS011;2753;49.196;8.286;2024-03-06T13:32:56;21.23;;;8.83;;
5460;SDS011;2753;49.196;8.286;2024-03-06T13:35:22;14.23;;;8.13;;
5460;SDS011;2753;49.196;8.286;2024-03-06T13:37:47;20.03;;;10.20;;
5460;SDS011;2753;49.196;8.286;2024-03-06T13:40:14;17.47;;;10.43;;
5460;SDS011;2753;49.196;8.286;2024-03-06T13:42:40;13.87;;;9.17;;
5460;SDS011;2753;49.196;8.286;2024-03-06T13:45:07;15.40;;;9.40;;
5460;SDS011;2753;49.196;8.286;2024-03-06T13:47:40;16.20;;;9.57;;
5460;SDS011;2753;49.196;8.286;2024-03-06T13:50:08;25.97;;;10.70;;
5460;SDS011;2753;49.196;8.286;2024-03-06T13:52:38;19.87;;;10.60;;
5460;SDS011;2753;49.196;8.286;2024-03-06T13:55:04;21.43;;;10.70;;
5460;SDS011;2753;49.196;8.286;2024-03-06T13:57:34;19.33;;;11.57;;
5460;SDS011;2753;49.196;8.286;2024-03-06T14:00:03;17.13;;;10.73;;
5460;SDS011;2753;49.196;8.286;2024-03-06T14:02:42;25.97;;;12.27;;
5460;SDS011;2753;49.196;8.286;2024-03-06T14:05:10;24.50;;;12.73;;
5460;SDS011;2753;49.196;8.286;2024-03-06T14:07:39;19.10;;;11.70;;
5460;SDS011;2753;49.196;8.286;2024-03-06T14:10:06;21.57;;;12.37;;
5460;SDS011;2753;49.196;8.286;2024-03-06T14:12:33;17.33;;;11.50;;
5460;SDS011;2753;49.196;8.286;2024-03-06T14:15:00;19.47;;;11.73;;
5460;SDS011;2753;49.196;8.286;2024-03-06T14:17:26;18.53;;;11.80;;
5460;SDS011;2753;49.196;8.286;2024-03-06T14:19:52;22.20;;;12.83;;
5460;SDS011;2753;49.196;8.286;2024-03-06T14:22:18;15.23;;;10.50;;
5460;SDS011;2753;49.196;8.286;2024-03-06T14:24:43;20.07;;;13.10;;
5460;SDS011;2753;49.196;8.286;2024-03-06T14:27:13;21.57;;;12.60;;
5460;SDS011;2753;49.196;8.286;2024-03-06T14:29:45;22.83;;;12.60;;
5460;SDS011;2753;49.196;8.286;2024-03-06T14:32:11;20.07;;;13.17;;
5460;SDS011;2753;49.196;8.286;2024-03-06T14:34:36;26.70;;;13.40;;
5460;SDS011;2753;49.196;8.286;2024-03-06T14:37:02;20.40;;;13.30;;
5460;SDS011;2753;49.196;8.286;2024-03-06T14:39:28;23.50;;;14.13;;
5460;SDS011;2753;49.196;8.286;2024-03-06T14:41:53;25.80;;;14.53;;
5460;SDS011;2753;49.196;8.286;2024-03-06T14:44:19;21.70;;;13.13;;
5460;SDS011;2753;49.196;8.286;2024-03-06T14:46:48;21.17;;;12.50;;
5460;SDS011;2753;49.196;8.286;2024-03-06T14:49:14;22.03;;;14.03;;
5460;SDS011;2753;49.196;8.286;2024-03-06T14:51:41;24.00;;;13.50;;
5460;SDS011;2753;49.196;8.286;2024-03-06T14:54:06;18.07;;;12.57;;
5460;SDS011;2753;49.196;8.286;2024-03-06T14:56:32;28.83;;;14.80;;
5460;SDS011;2753;49.196;8.286;2024-03-06T14:58:58;22.40;;;14.53;;
5460;SDS011;2753;49.196;8.286;2024-03-06T15:01:24;25.00;;;15.73;;
5460;SDS011;2753;49.196;8.286;2024-03-06T15:03:50;21.43;;;14.43;;
5460;SDS011;2753;49.196;8.286;2024-03-06T15:06:19;29.63;;;18.13;;
5460;SDS011;2753;49.196;8.286;2024-03-06T15:08:45;28.57;;;16.47;;
5460;SDS011;2753;49.196;8.286;2024-03-06T15:11:12;21.47;;;13.70;;
5460;SDS011;2753;49.196;8.286;2024-03-06T15:13:42;22.10;;;13.90;;
5460;SDS011;2753;49.196;8.286;2024-03-06T15:16:08;21.60;;;14.80;;
5460;SDS011;2753;49.196;8.286;2024-03-06T15:18:35;21.83;;;14.20;;